SWA1767 KMSY-KBNA
Flight info
| Callsign | SWA1767 |
|---|---|
| Flight time | 1h 6m |
| Altitude | 35000 |
| Route | LBY MEI KISTS CHSNE3 |
| Aircraft | B738/M-SDE2E3FGHIRWXY/LB1 |
Departure
| Time | 2026-05-08 00:40 |
|---|---|
| Airport | Louis Armstrong New Orleans International Airport (KMSY) |
Arrival
| Time | 2026-05-08 01:47 |
|---|---|
| Airport | Nashville International Airport (KBNA) |
| Time | Latitude | Longitude | Altitude | Speed | Heading |
|---|---|---|---|---|---|
| 2026-05-08 00:16 | 29.98536 | -90.25356 | 12 ft | 0 kts | 305° |
| 2026-05-08 00:17 | 29.98537 | -90.25356 | 12 ft | 0 kts | 305° |
| 2026-05-08 00:17 | 29.98537 | -90.25357 | 12 ft | 0 kts | 305° |
| 2026-05-08 00:20 | 29.98537 | -90.25358 | 12 ft | 0 kts | 305° |
| 2026-05-08 00:21 | 29.98538 | -90.25358 | 12 ft | 0 kts | 305° |
| 2026-05-08 00:22 | 29.98538 | -90.25359 | 12 ft | 0 kts | 305° |
| 2026-05-08 00:24 | 29.98538 | -90.25360 | 12 ft | 0 kts | 305° |
| 2026-05-08 00:24 | 29.98539 | -90.25360 | 12 ft | 0 kts | 305° |
| 2026-05-08 00:26 | 29.98539 | -90.25361 | 12 ft | 0 kts | 305° |
| 2026-05-08 00:27 | 29.98534 | -90.25352 | 12 ft | 2 kts | 305° |
| 2026-05-08 00:27 | 29.98523 | -90.25335 | 12 ft | 3 kts | 305° |
| 2026-05-08 00:28 | 29.98512 | -90.25317 | 12 ft | 3 kts | 315° |
| 2026-05-08 00:28 | 29.98494 | -90.25306 | 12 ft | 3 kts | 353° |
| 2026-05-08 00:28 | 29.98474 | -90.25310 | 12 ft | 3 kts | 28° |
| 2026-05-08 00:28 | 29.98470 | -90.25313 | 12 ft | 0 kts | 35° |
| 2026-05-08 00:29 | 29.98471 | -90.25313 | 12 ft | 0 kts | 35° |
| 2026-05-08 00:30 | 29.98471 | -90.25312 | 12 ft | 0 kts | 35° |
| 2026-05-08 00:32 | 29.98472 | -90.25312 | 12 ft | 0 kts | 35° |
| 2026-05-08 00:33 | 29.98472 | -90.25311 | 12 ft | 0 kts | 35° |
| 2026-05-08 00:34 | 29.98473 | -90.25311 | 12 ft | 0 kts | 35° |
| 2026-05-08 00:36 | 29.98474 | -90.25310 | 12 ft | 1 kts | 35° |
| 2026-05-08 00:36 | 29.98499 | -90.25281 | 12 ft | 9 kts | 51° |
| 2026-05-08 00:36 | 29.98557 | -90.25249 | 12 ft | 8 kts | 16° |
| 2026-05-08 00:36 | 29.98594 | -90.25236 | 12 ft | 4 kts | 18° |
| 2026-05-08 00:37 | 29.98629 | -90.25224 | 12 ft | 8 kts | 17° |
| 2026-05-08 00:37 | 29.98703 | -90.25197 | 12 ft | 14 kts | 17° |
| 2026-05-08 00:37 | 29.98797 | -90.25171 | 12 ft | 8 kts | 17° |
| 2026-05-08 00:38 | 29.98848 | -90.25155 | 12 ft | 0 kts | 15° |
| 2026-05-08 00:38 | 29.98848 | -90.25154 | 12 ft | 0 kts | 15° |
| 2026-05-08 00:39 | 29.98859 | -90.25151 | 12 ft | 5 kts | 15° |
| 2026-05-08 00:39 | 29.98911 | -90.25138 | 12 ft | 9 kts | 346° |
| 2026-05-08 00:39 | 29.98950 | -90.25217 | 12 ft | 14 kts | 285° |
| 2026-05-08 00:39 | 29.98999 | -90.25421 | 12 ft | 54 kts | 285° |
| 2026-05-08 00:40 | 29.99169 | -90.26120 | 12 ft | 126 kts | 285° |
| 2026-05-08 00:40 | 29.99472 | -90.27326 | 65 ft | 180 kts | 286° |
| 2026-05-08 00:40 | 29.99809 | -90.28790 | 734 ft | 195 kts | 285° |
| 2026-05-08 00:40 | 30.00152 | -90.30278 | 1827 ft | 188 kts | 286° |
| 2026-05-08 00:41 | 30.00463 | -90.31711 | 3045 ft | 177 kts | 285° |
| 2026-05-08 00:41 | 30.00743 | -90.33037 | 4170 ft | 164 kts | 290° |
| 2026-05-08 00:41 | 30.01245 | -90.34255 | 4850 ft | 180 kts | 304° |
| 2026-05-08 00:41 | 30.02321 | -90.35264 | 4888 ft | 226 kts | 335° |
| 2026-05-08 00:42 | 30.03914 | -90.35922 | 5235 ft | 255 kts | 340° |
| 2026-05-08 00:42 | 30.05629 | -90.36587 | 5939 ft | 271 kts | 340° |
| 2026-05-08 00:42 | 30.07495 | -90.37141 | 6795 ft | 282 kts | 355° |
| 2026-05-08 00:42 | 30.09432 | -90.36702 | 7770 ft | 290 kts | 21° |
| 2026-05-08 00:43 | 30.11231 | -90.35553 | 8696 ft | 297 kts | 30° |
| 2026-05-08 00:43 | 30.13006 | -90.34258 | 9427 ft | 305 kts | 31° |
| 2026-05-08 00:43 | 30.14776 | -90.32908 | 9847 ft | 308 kts | 31° |
| 2026-05-08 00:43 | 30.16570 | -90.31527 | 10471 ft | 312 kts | 31° |
| 2026-05-08 00:44 | 30.18382 | -90.30132 | 11404 ft | 314 kts | 31° |
| 2026-05-08 00:44 | 30.20192 | -90.28738 | 12254 ft | 319 kts | 31° |
| 2026-05-08 00:44 | 30.22071 | -90.27291 | 13045 ft | 327 kts | 31° |
| 2026-05-08 00:44 | 30.23977 | -90.25821 | 13801 ft | 334 kts | 30° |
| 2026-05-08 00:45 | 30.25933 | -90.24313 | 14564 ft | 341 kts | 30° |
| 2026-05-08 00:45 | 30.27934 | -90.22769 | 15309 ft | 348 kts | 30° |
| 2026-05-08 00:45 | 30.29952 | -90.21211 | 16032 ft | 355 kts | 29° |
| 2026-05-08 00:45 | 30.32016 | -90.19617 | 16745 ft | 361 kts | 29° |
| 2026-05-08 00:46 | 30.34119 | -90.17993 | 17436 ft | 368 kts | 28° |
| 2026-05-08 00:46 | 30.36272 | -90.16330 | 18102 ft | 375 kts | 28° |
| 2026-05-08 00:46 | 30.38475 | -90.14627 | 18537 ft | 390 kts | 28° |
| 2026-05-08 00:46 | 30.40789 | -90.12846 | 18770 ft | 409 kts | 28° |
| 2026-05-08 00:47 | 30.43223 | -90.10974 | 18989 ft | 427 kts | 28° |
| 2026-05-08 00:47 | 30.45727 | -90.09045 | 19377 ft | 438 kts | 28° |
| 2026-05-08 00:47 | 30.48279 | -90.07076 | 19969 ft | 443 kts | 28° |
| 2026-05-08 00:47 | 30.50877 | -90.05069 | 20534 ft | 448 kts | 28° |
| 2026-05-08 00:48 | 30.53473 | -90.03062 | 21105 ft | 452 kts | 28° |
| 2026-05-08 00:48 | 30.56106 | -90.01024 | 21638 ft | 457 kts | 28° |
| 2026-05-08 00:48 | 30.58767 | -89.98962 | 22212 ft | 458 kts | 28° |
| 2026-05-08 00:48 | 30.61381 | -89.96934 | 22871 ft | 459 kts | 27° |
| 2026-05-08 00:49 | 30.64080 | -89.94840 | 23253 ft | 466 kts | 27° |
| 2026-05-08 00:49 | 30.66794 | -89.92733 | 23716 ft | 470 kts | 27° |
| 2026-05-08 00:49 | 30.69532 | -89.90605 | 24139 ft | 475 kts | 27° |
| 2026-05-08 00:49 | 30.72288 | -89.88461 | 24590 ft | 478 kts | 27° |
| 2026-05-08 00:50 | 30.75067 | -89.86298 | 25017 ft | 482 kts | 27° |
| 2026-05-08 00:50 | 30.77822 | -89.84152 | 25453 ft | 485 kts | 27° |
| 2026-05-08 00:50 | 30.80637 | -89.81958 | 25907 ft | 487 kts | 27° |
| 2026-05-08 00:50 | 30.83454 | -89.79761 | 26311 ft | 491 kts | 27° |
| 2026-05-08 00:51 | 30.86307 | -89.77534 | 26719 ft | 494 kts | 27° |
| 2026-05-08 00:51 | 30.89171 | -89.75296 | 27111 ft | 497 kts | 27° |
| 2026-05-08 00:51 | 30.92038 | -89.73054 | 27485 ft | 500 kts | 27° |
| 2026-05-08 00:51 | 30.93975 | -89.71539 | 27730 ft | 502 kts | 27° |
| 2026-05-08 00:52 | 30.96874 | -89.69270 | 28077 ft | 505 kts | 27° |
| 2026-05-08 00:52 | 30.99811 | -89.66969 | 28434 ft | 508 kts | 27° |
| 2026-05-08 00:52 | 31.02733 | -89.64678 | 28775 ft | 511 kts | 27° |
| 2026-05-08 00:52 | 31.05178 | -89.62759 | 29082 ft | 513 kts | 27° |
| 2026-05-08 00:53 | 31.08106 | -89.60461 | 29423 ft | 515 kts | 27° |
| 2026-05-08 00:53 | 31.11087 | -89.58119 | 29731 ft | 518 kts | 27° |
| 2026-05-08 00:53 | 31.14079 | -89.55766 | 30065 ft | 520 kts | 27° |
| 2026-05-08 00:53 | 31.17080 | -89.53413 | 30498 ft | 519 kts | 26° |
| 2026-05-08 00:54 | 31.20082 | -89.51055 | 30942 ft | 518 kts | 26° |
| 2026-05-08 00:54 | 31.23074 | -89.48698 | 31354 ft | 518 kts | 26° |
| 2026-05-08 00:54 | 31.26067 | -89.46336 | 31771 ft | 518 kts | 26° |
| 2026-05-08 00:54 | 31.29057 | -89.43974 | 32141 ft | 519 kts | 26° |
| 2026-05-08 00:55 | 31.32049 | -89.41606 | 32521 ft | 519 kts | 26° |
| 2026-05-08 00:55 | 31.35039 | -89.39238 | 32935 ft | 519 kts | 26° |
| 2026-05-08 00:55 | 31.38044 | -89.36858 | 33331 ft | 519 kts | 26° |
| 2026-05-08 00:55 | 31.41012 | -89.34563 | 33705 ft | 515 kts | 22° |
| 2026-05-08 00:56 | 31.44124 | -89.32569 | 34093 ft | 508 kts | 17° |
| 2026-05-08 00:56 | 31.47301 | -89.30774 | 34481 ft | 505 kts | 15° |
| 2026-05-08 00:56 | 31.50489 | -89.29030 | 34860 ft | 504 kts | 15° |
| 2026-05-08 00:56 | 31.53676 | -89.27282 | 35050 ft | 508 kts | 15° |
| 2026-05-08 00:57 | 31.56882 | -89.25517 | 35064 ft | 509 kts | 15° |
| 2026-05-08 00:57 | 31.63284 | -89.21982 | 35061 ft | 506 kts | 15° |
| 2026-05-08 00:58 | 31.69593 | -89.18487 | 35060 ft | 504 kts | 15° |
| 2026-05-08 00:58 | 31.75947 | -89.14971 | 35060 ft | 504 kts | 15° |
| 2026-05-08 00:59 | 31.82290 | -89.11458 | 35059 ft | 504 kts | 15° |
| 2026-05-08 00:59 | 31.88597 | -89.07954 | 35058 ft | 503 kts | 15° |
| 2026-05-08 01:00 | 31.94915 | -89.04436 | 35056 ft | 501 kts | 15° |
| 2026-05-08 01:00 | 32.01211 | -89.00924 | 35055 ft | 501 kts | 15° |
| 2026-05-08 01:01 | 32.07552 | -88.97380 | 35054 ft | 503 kts | 14° |
| 2026-05-08 01:01 | 32.13841 | -88.93872 | 35052 ft | 503 kts | 14° |
| 2026-05-08 01:02 | 32.20195 | -88.90311 | 35052 ft | 503 kts | 14° |
| 2026-05-08 01:02 | 32.26525 | -88.86753 | 35051 ft | 503 kts | 14° |
| 2026-05-08 01:03 | 32.32814 | -88.83213 | 35050 ft | 502 kts | 14° |
| 2026-05-08 01:03 | 32.36022 | -88.81683 | 35050 ft | 491 kts | 7° |
| 2026-05-08 01:03 | 32.39286 | -88.80615 | 35050 ft | 479 kts | 360° |
| 2026-05-08 01:03 | 32.42537 | -88.80021 | 35054 ft | 467 kts | 353° |
| 2026-05-08 01:04 | 32.45766 | -88.79764 | 35060 ft | 462 kts | 349° |
| 2026-05-08 01:04 | 32.52127 | -88.79482 | 35065 ft | 460 kts | 349° |
| 2026-05-08 01:05 | 32.58568 | -88.79172 | 35071 ft | 459 kts | 349° |
| 2026-05-08 01:05 | 32.64930 | -88.78843 | 35078 ft | 460 kts | 349° |
| 2026-05-08 01:06 | 32.71329 | -88.78499 | 35084 ft | 460 kts | 349° |
| 2026-05-08 01:06 | 32.77722 | -88.78149 | 35089 ft | 460 kts | 349° |
| 2026-05-08 01:07 | 32.84104 | -88.77795 | 35089 ft | 460 kts | 349° |
| 2026-05-08 01:07 | 32.90520 | -88.77437 | 35088 ft | 461 kts | 349° |
| 2026-05-08 01:08 | 32.96890 | -88.77078 | 35087 ft | 462 kts | 349° |
| 2026-05-08 01:08 | 33.03313 | -88.76716 | 35086 ft | 461 kts | 349° |
| 2026-05-08 01:09 | 33.09739 | -88.76352 | 35086 ft | 461 kts | 349° |
| 2026-05-08 01:09 | 33.16147 | -88.75989 | 35084 ft | 461 kts | 349° |
| 2026-05-08 01:10 | 33.22576 | -88.75624 | 35073 ft | 461 kts | 349° |
| 2026-05-08 01:10 | 33.28943 | -88.75261 | 35067 ft | 461 kts | 348° |
| 2026-05-08 01:11 | 33.35360 | -88.74896 | 35063 ft | 461 kts | 348° |
| 2026-05-08 01:11 | 33.41769 | -88.74530 | 35059 ft | 461 kts | 348° |
| 2026-05-08 01:12 | 33.47202 | -88.74219 | 35057 ft | 461 kts | 348° |
| 2026-05-08 01:12 | 33.53622 | -88.73851 | 35057 ft | 461 kts | 348° |
| 2026-05-08 01:13 | 33.60029 | -88.73484 | 35054 ft | 461 kts | 348° |
| 2026-05-08 01:13 | 33.66390 | -88.73119 | 35056 ft | 461 kts | 348° |
| 2026-05-08 01:14 | 33.72835 | -88.72748 | 35051 ft | 461 kts | 348° |
| 2026-05-08 01:14 | 33.79208 | -88.72381 | 35040 ft | 461 kts | 348° |
| 2026-05-08 01:15 | 33.85655 | -88.72009 | 35042 ft | 461 kts | 348° |
| 2026-05-08 01:15 | 33.92014 | -88.71642 | 35046 ft | 460 kts | 348° |
| 2026-05-08 01:16 | 33.98434 | -88.71271 | 35052 ft | 460 kts | 348° |
| 2026-05-08 01:16 | 34.04846 | -88.70898 | 35058 ft | 460 kts | 348° |
| 2026-05-08 01:17 | 34.11255 | -88.70526 | 35063 ft | 460 kts | 348° |
| 2026-05-08 01:17 | 34.17620 | -88.70157 | 35067 ft | 460 kts | 347° |
| 2026-05-08 01:18 | 34.24019 | -88.69785 | 35069 ft | 460 kts | 347° |
| 2026-05-08 01:18 | 34.30390 | -88.69413 | 35070 ft | 460 kts | 347° |
| 2026-05-08 01:19 | 34.36796 | -88.69039 | 35070 ft | 460 kts | 347° |
| 2026-05-08 01:19 | 34.42264 | -88.68719 | 35069 ft | 460 kts | 347° |
| 2026-05-08 01:19 | 34.45495 | -88.68281 | 35064 ft | 478 kts | 357° |
| 2026-05-08 01:20 | 34.48764 | -88.67144 | 35068 ft | 499 kts | 7° |
| 2026-05-08 01:20 | 34.51919 | -88.65334 | 35069 ft | 517 kts | 18° |
| 2026-05-08 01:20 | 34.54958 | -88.62869 | 35077 ft | 529 kts | 25° |
| 2026-05-08 01:21 | 34.60894 | -88.57608 | 34557 ft | 525 kts | 25° |
| 2026-05-08 01:21 | 34.63841 | -88.54985 | 33852 ft | 525 kts | 25° |
| 2026-05-08 01:21 | 34.66784 | -88.52361 | 33255 ft | 524 kts | 25° |
| 2026-05-08 01:21 | 34.69725 | -88.49737 | 32732 ft | 520 kts | 25° |
| 2026-05-08 01:22 | 34.72625 | -88.47147 | 32222 ft | 516 kts | 25° |
| 2026-05-08 01:22 | 34.75480 | -88.44595 | 31724 ft | 512 kts | 25° |
| 2026-05-08 01:22 | 34.78335 | -88.42041 | 31227 ft | 508 kts | 25° |
| 2026-05-08 01:22 | 34.81212 | -88.39471 | 30730 ft | 503 kts | 24° |
| 2026-05-08 01:23 | 34.83985 | -88.37005 | 30253 ft | 499 kts | 24° |
| 2026-05-08 01:23 | 34.86780 | -88.34514 | 29775 ft | 495 kts | 24° |
| 2026-05-08 01:23 | 34.89557 | -88.32035 | 29300 ft | 491 kts | 24° |
| 2026-05-08 01:23 | 34.92299 | -88.29583 | 28825 ft | 487 kts | 24° |
| 2026-05-08 01:24 | 34.95020 | -88.27146 | 28353 ft | 483 kts | 25° |
| 2026-05-08 01:24 | 34.97711 | -88.24733 | 27883 ft | 479 kts | 25° |
| 2026-05-08 01:24 | 35.00397 | -88.22323 | 27409 ft | 476 kts | 25° |
| 2026-05-08 01:24 | 35.03056 | -88.19933 | 26938 ft | 472 kts | 25° |
| 2026-05-08 01:25 | 35.05693 | -88.17560 | 26467 ft | 468 kts | 26° |
| 2026-05-08 01:25 | 35.08278 | -88.15233 | 26003 ft | 465 kts | 26° |
| 2026-05-08 01:25 | 35.10869 | -88.12899 | 25538 ft | 461 kts | 26° |
| 2026-05-08 01:25 | 35.13433 | -88.10586 | 25073 ft | 457 kts | 26° |
| 2026-05-08 01:26 | 35.15990 | -88.08279 | 24608 ft | 454 kts | 27° |
| 2026-05-08 01:26 | 35.18520 | -88.05993 | 24144 ft | 450 kts | 27° |
| 2026-05-08 01:26 | 35.20983 | -88.03765 | 23690 ft | 446 kts | 27° |
| 2026-05-08 01:26 | 35.23487 | -88.01498 | 23223 ft | 443 kts | 27° |
| 2026-05-08 01:27 | 35.25951 | -87.99267 | 22760 ft | 440 kts | 27° |
| 2026-05-08 01:27 | 35.28409 | -87.97039 | 22295 ft | 435 kts | 27° |
| 2026-05-08 01:27 | 35.30822 | -87.94850 | 21837 ft | 424 kts | 27° |
| 2026-05-08 01:27 | 35.33162 | -87.92726 | 21389 ft | 414 kts | 27° |
| 2026-05-08 01:28 | 35.35454 | -87.90645 | 20947 ft | 405 kts | 27° |
| 2026-05-08 01:28 | 35.37694 | -87.88608 | 20516 ft | 397 kts | 27° |
| 2026-05-08 01:28 | 35.39907 | -87.86596 | 20092 ft | 396 kts | 27° |
| 2026-05-08 01:28 | 35.42096 | -87.84604 | 19667 ft | 396 kts | 27° |
| 2026-05-08 01:29 | 35.44312 | -87.82585 | 19235 ft | 395 kts | 28° |
| 2026-05-08 01:29 | 35.46514 | -87.80577 | 18807 ft | 395 kts | 28° |
| 2026-05-08 01:29 | 35.48714 | -87.78571 | 18379 ft | 394 kts | 28° |
| 2026-05-08 01:29 | 35.50928 | -87.76550 | 17946 ft | 393 kts | 28° |
| 2026-05-08 01:30 | 35.53109 | -87.74559 | 17518 ft | 392 kts | 28° |
| 2026-05-08 01:30 | 35.55297 | -87.72559 | 17089 ft | 391 kts | 28° |
| 2026-05-08 01:30 | 35.57481 | -87.70568 | 16617 ft | 391 kts | 28° |
| 2026-05-08 01:30 | 35.59665 | -87.68579 | 16180 ft | 389 kts | 29° |
| 2026-05-08 01:31 | 35.61833 | -87.66598 | 15746 ft | 384 kts | 29° |
| 2026-05-08 01:31 | 35.63930 | -87.64678 | 15331 ft | 375 kts | 29° |
| 2026-05-08 01:31 | 35.65999 | -87.62780 | 14921 ft | 366 kts | 29° |
| 2026-05-08 01:31 | 35.68016 | -87.60928 | 14522 ft | 358 kts | 29° |
| 2026-05-08 01:32 | 35.69994 | -87.59109 | 14129 ft | 351 kts | 29° |
| 2026-05-08 01:32 | 35.71931 | -87.57326 | 13749 ft | 344 kts | 29° |
| 2026-05-08 01:32 | 35.73829 | -87.55579 | 13378 ft | 337 kts | 29° |
| 2026-05-08 01:32 | 35.75691 | -87.53863 | 13013 ft | 332 kts | 30° |
| 2026-05-08 01:33 | 35.77537 | -87.52165 | 12655 ft | 330 kts | 30° |
| 2026-05-08 01:33 | 35.79379 | -87.50467 | 12333 ft | 330 kts | 30° |
| 2026-05-08 01:33 | 35.81176 | -87.48761 | 12133 ft | 323 kts | 34° |
| 2026-05-08 01:33 | 35.82694 | -87.46742 | 11881 ft | 322 kts | 47° |
| 2026-05-08 01:34 | 35.83899 | -87.44412 | 11509 ft | 321 kts | 56° |
| 2026-05-08 01:34 | 35.84849 | -87.41985 | 11147 ft | 317 kts | 61° |
| 2026-05-08 01:34 | 35.85751 | -87.39528 | 10777 ft | 311 kts | 60° |
| 2026-05-08 01:34 | 35.86668 | -87.37144 | 10417 ft | 306 kts | 62° |
| 2026-05-08 01:35 | 35.87290 | -87.34653 | 10049 ft | 304 kts | 79° |
| 2026-05-08 01:35 | 35.87307 | -87.32071 | 9756 ft | 299 kts | 94° |
| 2026-05-08 01:35 | 35.87012 | -87.29539 | 9489 ft | 297 kts | 99° |
| 2026-05-08 01:35 | 35.86758 | -87.27890 | 9311 ft | 295 kts | 101° |
| 2026-05-08 01:36 | 35.86336 | -87.25406 | 9040 ft | 292 kts | 101° |
| 2026-05-08 01:36 | 35.85797 | -87.22220 | 8697 ft | 281 kts | 101° |
| 2026-05-08 01:36 | 35.85532 | -87.20645 | 8528 ft | 275 kts | 101° |
| 2026-05-08 01:36 | 35.85152 | -87.18369 | 8285 ft | 266 kts | 101° |
| 2026-05-08 01:37 | 35.84787 | -87.16172 | 8049 ft | 258 kts | 101° |
| 2026-05-08 01:37 | 35.84595 | -87.14014 | 7812 ft | 249 kts | 85° |
| 2026-05-08 01:37 | 35.84847 | -87.11927 | 7602 ft | 244 kts | 77° |
| 2026-05-08 01:37 | 35.85188 | -87.09901 | 7403 ft | 240 kts | 77° |
| 2026-05-08 01:38 | 35.85524 | -87.07892 | 7273 ft | 240 kts | 77° |
| 2026-05-08 01:38 | 35.85862 | -87.05871 | 7179 ft | 240 kts | 77° |
| 2026-05-08 01:38 | 35.86199 | -87.03872 | 6937 ft | 241 kts | 77° |
| 2026-05-08 01:38 | 35.86536 | -87.01860 | 6687 ft | 239 kts | 77° |
| 2026-05-08 01:39 | 35.86872 | -86.99860 | 6437 ft | 238 kts | 77° |
| 2026-05-08 01:39 | 35.87151 | -86.98196 | 6227 ft | 236 kts | 77° |
| 2026-05-08 01:39 | 35.87485 | -86.96225 | 5977 ft | 234 kts | 77° |
| 2026-05-08 01:39 | 35.87810 | -86.94271 | 5727 ft | 232 kts | 77° |
| 2026-05-08 01:40 | 35.88134 | -86.92315 | 5475 ft | 231 kts | 76° |
| 2026-05-08 01:40 | 35.88454 | -86.90378 | 5225 ft | 231 kts | 77° |
| 2026-05-08 01:40 | 35.88766 | -86.88464 | 4977 ft | 229 kts | 76° |
| 2026-05-08 01:40 | 35.89076 | -86.86543 | 4726 ft | 227 kts | 76° |
| 2026-05-08 01:41 | 35.89382 | -86.84640 | 4515 ft | 223 kts | 76° |
| 2026-05-08 01:41 | 35.89679 | -86.82776 | 4311 ft | 218 kts | 76° |
| 2026-05-08 01:41 | 35.89956 | -86.80994 | 4099 ft | 210 kts | 76° |
| 2026-05-08 01:41 | 35.90224 | -86.79261 | 3991 ft | 201 kts | 76° |
| 2026-05-08 01:42 | 35.90751 | -86.77735 | 3929 ft | 189 kts | 46° |
| 2026-05-08 01:42 | 35.91757 | -86.76774 | 3962 ft | 182 kts | 27° |
| 2026-05-08 01:42 | 35.92895 | -86.76097 | 3989 ft | 183 kts | 22° |
| 2026-05-08 01:42 | 35.94083 | -86.75442 | 3897 ft | 191 kts | 21° |
| 2026-05-08 01:43 | 35.95333 | -86.74836 | 3671 ft | 191 kts | 18° |
| 2026-05-08 01:43 | 35.96579 | -86.74305 | 3411 ft | 187 kts | 17° |
| 2026-05-08 01:43 | 35.97795 | -86.73809 | 3152 ft | 182 kts | 16° |
| 2026-05-08 01:43 | 35.98990 | -86.73328 | 2907 ft | 178 kts | 16° |
| 2026-05-08 01:44 | 36.00164 | -86.72858 | 2671 ft | 178 kts | 16° |
| 2026-05-08 01:44 | 36.01343 | -86.72387 | 2437 ft | 179 kts | 16° |
| 2026-05-08 01:44 | 36.02520 | -86.71918 | 2208 ft | 176 kts | 16° |
| 2026-05-08 01:44 | 36.03663 | -86.71461 | 1977 ft | 173 kts | 16° |
| 2026-05-08 01:45 | 36.04810 | -86.71003 | 1740 ft | 172 kts | 16° |
| 2026-05-08 01:45 | 36.05924 | -86.70558 | 1519 ft | 161 kts | 16° |
| 2026-05-08 01:45 | 36.06962 | -86.70133 | 1216 ft | 154 kts | 17° |
| 2026-05-08 01:45 | 36.07936 | -86.69753 | 1063 ft | 143 kts | 15° |
| 2026-05-08 01:46 | 36.08874 | -86.69385 | 926 ft | 138 kts | 17° |
| 2026-05-08 01:46 | 36.09787 | -86.69019 | 761 ft | 136 kts | 17° |
| 2026-05-08 01:46 | 36.10674 | -86.68660 | 618 ft | 127 kts | 17° |
| 2026-05-08 01:46 | 36.11386 | -86.68385 | 607 ft | 78 kts | 21° |
| 2026-05-08 01:47 | 36.11707 | -86.68246 | 607 ft | 30 kts | 18° |
| 2026-05-08 01:47 | 36.11892 | -86.68174 | 607 ft | 25 kts | 17° |
| 2026-05-08 01:47 | 36.12036 | -86.68111 | 607 ft | 12 kts | 26° |
| 2026-05-08 01:48 | 36.12076 | -86.68037 | 607 ft | 0 kts | 75° |
| 2026-05-08 01:48 | 36.12083 | -86.68009 | 607 ft | 8 kts | 75° |
| 2026-05-08 01:48 | 36.12089 | -86.67980 | 607 ft | 0 kts | 75° |
| 2026-05-08 01:49 | 36.12090 | -86.67976 | 607 ft | 2 kts | 75° |
| 2026-05-08 01:50 | 36.12095 | -86.67951 | 607 ft | 5 kts | 75° |
| 2026-05-08 01:50 | 36.12105 | -86.67906 | 607 ft | 7 kts | 74° |
| 2026-05-08 01:50 | 36.12127 | -86.67858 | 607 ft | 7 kts | 64° |
| 2026-05-08 01:50 | 36.12140 | -86.67795 | 607 ft | 7 kts | 82° |
| 2026-05-08 01:51 | 36.12167 | -86.67740 | 607 ft | 9 kts | 26° |
| 2026-05-08 01:51 | 36.12231 | -86.67712 | 607 ft | 10 kts | 17° |
| 2026-05-08 01:51 | 36.12300 | -86.67684 | 607 ft | 10 kts | 19° |
| 2026-05-08 01:51 | 36.12368 | -86.67656 | 607 ft | 10 kts | 19° |
| 2026-05-08 01:52 | 36.12432 | -86.67621 | 607 ft | 10 kts | 31° |
| 2026-05-08 01:52 | 36.12485 | -86.67574 | 607 ft | 8 kts | 37° |
| 2026-05-08 01:52 | 36.12532 | -86.67530 | 607 ft | 8 kts | 37° |
| 2026-05-08 01:52 | 36.12576 | -86.67486 | 607 ft | 8 kts | 38° |
| 2026-05-08 01:53 | 36.12621 | -86.67442 | 607 ft | 8 kts | 38° |
| 2026-05-08 01:53 | 36.12657 | -86.67393 | 607 ft | 8 kts | 66° |
| 2026-05-08 01:53 | 36.12645 | -86.67336 | 607 ft | 7 kts | 128° |
| 2026-05-08 01:53 | 36.12613 | -86.67290 | 607 ft | 7 kts | 133° |
| 2026-05-08 01:54 | 36.12579 | -86.67246 | 607 ft | 7 kts | 133° |
| 2026-05-08 01:54 | 36.12545 | -86.67201 | 607 ft | 7 kts | 133° |
| 2026-05-08 01:54 | 36.12510 | -86.67155 | 607 ft | 7 kts | 133° |
| 2026-05-08 01:54 | 36.12476 | -86.67109 | 607 ft | 7 kts | 133° |
| 2026-05-08 01:55 | 36.12442 | -86.67063 | 607 ft | 8 kts | 133° |
| 2026-05-08 01:55 | 36.12407 | -86.67004 | 607 ft | 9 kts | 96° |
| 2026-05-08 01:55 | 36.12439 | -86.66941 | 607 ft | 9 kts | 43° |
| 2026-05-08 01:55 | 36.12491 | -86.66896 | 607 ft | 9 kts | 16° |
| 2026-05-08 01:56 | 36.12551 | -86.66867 | 607 ft | 10 kts | 44° |
| 2026-05-08 01:56 | 36.12604 | -86.66808 | 607 ft | 11 kts | 41° |
| 2026-05-08 01:56 | 36.12673 | -86.66788 | 607 ft | 11 kts | 338° |
| 2026-05-08 01:56 | 36.12723 | -86.66843 | 607 ft | 7 kts | 309° |
| 2026-05-08 01:57 | 36.12735 | -86.66860 | 607 ft | 0 kts | 309° |
| 2026-05-08 01:59 | 36.12738 | -86.66865 | 607 ft | 0 kts | 309° |